sensor_id;sensor_type;location;lat;lon;timestamp;temperature;humidity
2767;DHT22;1391;46.74287300;11.63683300;2024-02-04T00:00:14;2.00;54.60
2767;DHT22;1391;46.74287300;11.63683300;2024-02-04T00:02:45;1.70;62.30
2767;DHT22;1391;46.74287300;11.63683300;2024-02-04T00:05:12;2.00;65.60
2767;DHT22;1391;46.74287300;11.63683300;2024-02-04T00:07:39;1.80;65.80
2767;DHT22;1391;46.74287300;11.63683300;2024-02-04T00:10:07;2.30;65.50
2767;DHT22;1391;46.74287300;11.63683300;2024-02-04T00:12:38;2.50;64.40
2767;DHT22;1391;46.74287300;11.63683300;2024-02-04T00:15:07;2.00;60.70
2767;DHT22;1391;46.74287300;11.63683300;2024-02-04T00:17:35;1.90;63.80
2767;DHT22;1391;46.74287300;11.63683300;2024-02-04T00:20:04;1.80;64.00
2767;DHT22;1391;46.74287300;11.63683300;2024-02-04T00:22:33;2.00;67.30
2767;DHT22;1391;46.74287300;11.63683300;2024-02-04T00:25:00;1.80;70.20
2767;DHT22;1391;46.74287300;11.63683300;2024-02-04T00:27:30;1.90;74.80
2767;DHT22;1391;46.74287300;11.63683300;2024-02-04T00:29:58;2.20;73.20
2767;DHT22;1391;46.74287300;11.63683300;2024-02-04T00:32:25;2.40;72.70
2767;DHT22;1391;46.74287300;11.63683300;2024-02-04T00:34:52;1.70;66.30
2767;DHT22;1391;46.74287300;11.63683300;2024-02-04T00:37:21;1.80;70.40
2767;DHT22;1391;46.74287300;11.63683300;2024-02-04T00:39:48;1.90;73.90
2767;DHT22;1391;46.74287300;11.63683300;2024-02-04T00:42:16;1.50;71.20
2767;DHT22;1391;46.74287300;11.63683300;2024-02-04T00:44:43;1.70;73.10
2767;DHT22;1391;46.74287300;11.63683300;2024-02-04T00:47:10;2.00;70.70
2767;DHT22;1391;46.74287300;11.63683300;2024-02-04T00:49:39;1.80;68.90
2767;DHT22;1391;46.74287300;11.63683300;2024-02-04T00:52:06;2.10;74.90
2767;DHT22;1391;46.74287300;11.63683300;2024-02-04T00:54:35;2.60;69.50
2767;DHT22;1391;46.74287300;11.63683300;2024-02-04T00:57:04;2.80;64.50
2767;DHT22;1391;46.74287300;11.63683300;2024-02-04T00:59:31;2.00;61.40
2767;DHT22;1391;46.74287300;11.63683300;2024-02-04T01:01:58;2.30;66.70
2767;DHT22;1391;46.74287300;11.63683300;2024-02-04T01:04:25;2.30;65.00
2767;DHT22;1391;46.74287300;11.63683300;2024-02-04T01:06:53;2.30;68.90
2767;DHT22;1391;46.74287300;11.63683300;2024-02-04T01:09:20;2.20;69.40
2767;DHT22;1391;46.74287300;11.63683300;2024-02-04T01:11:48;2.20;67.80
2767;DHT22;1391;46.74287300;11.63683300;2024-02-04T01:14:15;2.00;67.20
2767;DHT22;1391;46.74287300;11.63683300;2024-02-04T01:16:43;1.90;69.50
2767;DHT22;1391;46.74287300;11.63683300;2024-02-04T01:19:10;1.70;69.30
2767;DHT22;1391;46.74287300;11.63683300;2024-02-04T01:21:37;2.70;65.90
2767;DHT22;1391;46.74287300;11.63683300;2024-02-04T01:24:05;2.50;64.20
2767;DHT22;1391;46.74287300;11.63683300;2024-02-04T01:26:32;2.00;63.70
2767;DHT22;1391;46.74287300;11.63683300;2024-02-04T01:29:01;2.20;65.00
2767;DHT22;1391;46.74287300;11.63683300;2024-02-04T01:31:29;1.90;64.80
2767;DHT22;1391;46.74287300;11.63683300;2024-02-04T01:33:57;1.70;67.20
2767;DHT22;1391;46.74287300;11.63683300;2024-02-04T01:36:24;1.70;67.30
2767;DHT22;1391;46.74287300;11.63683300;2024-02-04T01:38:51;1.30;69.00
2767;DHT22;1391;46.74287300;11.63683300;2024-02-04T01:41:18;1.90;70.90
2767;DHT22;1391;46.74287300;11.63683300;2024-02-04T01:43:45;1.60;67.50
2767;DHT22;1391;46.74287300;11.63683300;2024-02-04T01:46:14;1.60;69.50
2767;DHT22;1391;46.74287300;11.63683300;2024-02-04T01:48:41;1.60;70.40
2767;DHT22;1391;46.74287300;11.63683300;2024-02-04T01:51:08;1.50;68.40
2767;DHT22;1391;46.74287300;11.63683300;2024-02-04T01:53:36;1.30;70.60
2767;DHT22;1391;46.74287300;11.63683300;2024-02-04T01:56:06;1.90;71.40
2767;DHT22;1391;46.74287300;11.63683300;2024-02-04T01:58:34;1.40;72.60
2767;DHT22;1391;46.74287300;11.63683300;2024-02-04T02:01:01;1.50;71.30
2767;DHT22;1391;46.74287300;11.63683300;2024-02-04T02:03:31;1.50;72.30
2767;DHT22;1391;46.74287300;11.63683300;2024-02-04T02:05:59;1.50;73.10
2767;DHT22;1391;46.74287300;11.63683300;2024-02-04T02:08:26;1.50;75.40
2767;DHT22;1391;46.74287300;11.63683300;2024-02-04T02:11:02;1.60;74.60
2767;DHT22;1391;46.74287300;11.63683300;2024-02-04T02:13:33;1.60;76.90
2767;DHT22;1391;46.74287300;11.63683300;2024-02-04T02:16:05;1.60;79.80
2767;DHT22;1391;46.74287300;11.63683300;2024-02-04T02:18:44;1.00;70.50
2767;DHT22;1391;46.74287300;11.63683300;2024-02-04T02:21:24;1.00;81.00
2767;DHT22;1391;46.74287300;11.63683300;2024-02-04T02:24:04;1.20;84.90
2767;DHT22;1391;46.74287300;11.63683300;2024-02-04T02:26:40;1.30;84.30
2767;DHT22;1391;46.74287300;11.63683300;2024-02-04T02:29:08;1.50;82.70
2767;DHT22;1391;46.74287300;11.63683300;2024-02-04T02:31:35;1.30;75.70
2767;DHT22;1391;46.74287300;11.63683300;2024-02-04T02:34:03;1.10;76.20
2767;DHT22;1391;46.74287300;11.63683300;2024-02-04T02:36:36;1.00;79.40
2767;DHT22;1391;46.74287300;11.63683300;2024-02-04T02:39:15;0.90;82.20
2767;DHT22;1391;46.74287300;11.63683300;2024-02-04T02:41:48;1.00;87.20
2767;DHT22;1391;46.74287300;11.63683300;2024-02-04T02:44:16;1.20;90.80
2767;DHT22;1391;46.74287300;11.63683300;2024-02-04T02:46:45;1.30;91.10
2767;DHT22;1391;46.74287300;11.63683300;2024-02-04T02:49:13;0.60;87.10
2767;DHT22;1391;46.74287300;11.63683300;2024-02-04T02:51:40;0.80;88.30
2767;DHT22;1391;46.74287300;11.63683300;2024-02-04T02:54:07;0.60;89.10
2767;DHT22;1391;46.74287300;11.63683300;2024-02-04T02:56:35;1.10;87.90
2767;DHT22;1391;46.74287300;11.63683300;2024-02-04T02:59:03;1.00;87.80
2767;DHT22;1391;46.74287300;11.63683300;2024-02-04T03:01:31;0.50;83.40
2767;DHT22;1391;46.74287300;11.63683300;2024-02-04T03:03:58;0.60;90.60
2767;DHT22;1391;46.74287300;11.63683300;2024-02-04T03:06:25;1.10;91.30
2767;DHT22;1391;46.74287300;11.63683300;2024-02-04T03:08:52;1.30;91.60
2767;DHT22;1391;46.74287300;11.63683300;2024-02-04T03:11:19;1.10;91.30
2767;DHT22;1391;46.74287300;11.63683300;2024-02-04T03:13:46;0.60;89.40
2767;DHT22;1391;46.74287300;11.63683300;2024-02-04T03:16:15;1.30;94.10
2767;DHT22;1391;46.74287300;11.63683300;2024-02-04T03:18:43;1.20;84.00
2767;DHT22;1391;46.74287300;11.63683300;2024-02-04T03:21:12;1.40;88.60
2767;DHT22;1391;46.74287300;11.63683300;2024-02-04T03:23:41;1.30;86.70
2767;DHT22;1391;46.74287300;11.63683300;2024-02-04T03:26:08;1.40;85.90
2767;DHT22;1391;46.74287300;11.63683300;2024-02-04T03:28:36;1.30;84.70
2767;DHT22;1391;46.74287300;11.63683300;2024-02-04T03:31:04;1.20;84.00
2767;DHT22;1391;46.74287300;11.63683300;2024-02-04T03:33:32;1.20;86.30
2767;DHT22;1391;46.74287300;11.63683300;2024-02-04T03:36:00;1.50;85.10
2767;DHT22;1391;46.74287300;11.63683300;2024-02-04T03:38:27;1.70;81.10
2767;DHT22;1391;46.74287300;11.63683300;2024-02-04T03:40:54;2.20;72.20
2767;DHT22;1391;46.74287300;11.63683300;2024-02-04T03:43:21;2.30;64.30
2767;DHT22;1391;46.74287300;11.63683300;2024-02-04T03:45:48;1.60;65.00
2767;DHT22;1391;46.74287300;11.63683300;2024-02-04T03:48:16;1.40;69.20
2767;DHT22;1391;46.74287300;11.63683300;2024-02-04T03:50:44;1.60;70.90
2767;DHT22;1391;46.74287300;11.63683300;2024-02-04T03:53:11;1.60;73.70
2767;DHT22;1391;46.74287300;11.63683300;2024-02-04T03:55:38;1.60;72.60
2767;DHT22;1391;46.74287300;11.63683300;2024-02-04T03:58:06;1.10;72.30
2767;DHT22;1391;46.74287300;11.63683300;2024-02-04T04:00:33;1.10;74.40
2767;DHT22;1391;46.74287300;11.63683300;2024-02-04T04:03:00;1.30;75.20
2767;DHT22;1391;46.74287300;11.63683300;2024-02-04T04:05:27;1.20;75.70
2767;DHT22;1391;46.74287300;11.63683300;2024-02-04T04:07:56;1.30;79.20
2767;DHT22;1391;46.74287300;11.63683300;2024-02-04T04:10:23;1.30;81.40
2767;DHT22;1391;46.74287300;11.63683300;2024-02-04T04:12:50;1.30;79.00
2767;DHT22;1391;46.74287300;11.63683300;2024-02-04T04:15:17;0.90;79.60
2767;DHT22;1391;46.74287300;11.63683300;2024-02-04T04:17:45;1.00;86.20
2767;DHT22;1391;46.74287300;11.63683300;2024-02-04T04:20:12;0.80;89.20
2767;DHT22;1391;46.74287300;11.63683300;2024-02-04T04:22:39;0.70;85.30
2767;DHT22;1391;46.74287300;11.63683300;2024-02-04T04:25:09;0.60;87.00
2767;DHT22;1391;46.74287300;11.63683300;2024-02-04T04:27:36;0.60;85.50
2767;DHT22;1391;46.74287300;11.63683300;2024-02-04T04:30:04;0.40;88.70
2767;DHT22;1391;46.74287300;11.63683300;2024-02-04T04:32:32;1.00;92.20
2767;DHT22;1391;46.74287300;11.63683300;2024-02-04T04:34:59;0.50;91.10
2767;DHT22;1391;46.74287300;11.63683300;2024-02-04T04:37:26;0.40;92.10
2767;DHT22;1391;46.74287300;11.63683300;2024-02-04T04:39:53;1.00;93.40
2767;DHT22;1391;46.74287300;11.63683300;2024-02-04T04:42:22;0.60;90.60
2767;DHT22;1391;46.74287300;11.63683300;2024-02-04T04:44:50;0.10;89.20
2767;DHT22;1391;46.74287300;11.63683300;2024-02-04T04:47:17;0.30;91.30
2767;DHT22;1391;46.74287300;11.63683300;2024-02-04T04:49:44;0.10;92.90
2767;DHT22;1391;46.74287300;11.63683300;2024-02-04T04:52:11;0.30;93.30
2767;DHT22;1391;46.74287300;11.63683300;2024-02-04T04:54:39;0.00;92.10
2767;DHT22;1391;46.74287300;11.63683300;2024-02-04T04:57:06;0.10;95.10
2767;DHT22;1391;46.74287300;11.63683300;2024-02-04T04:59:35;0.30;93.00
2767;DHT22;1391;46.74287300;11.63683300;2024-02-04T05:02:04;0.40;94.70
2767;DHT22;1391;46.74287300;11.63683300;2024-02-04T05:04:31;0.60;94.90
2767;DHT22;1391;46.74287300;11.63683300;2024-02-04T05:06:58;0.40;95.40
2767;DHT22;1391;46.74287300;11.63683300;2024-02-04T05:09:25;0.20;90.50
2767;DHT22;1391;46.74287300;11.63683300;2024-02-04T05:11:52;0.40;93.30
2767;DHT22;1391;46.74287300;11.63683300;2024-02-04T05:14:19;0.30;95.20
2767;DHT22;1391;46.74287300;11.63683300;2024-02-04T05:16:49;0.50;95.20
2767;DHT22;1391;46.74287300;11.63683300;2024-02-04T05:19:17;0.30;94.70
2767;DHT22;1391;46.74287300;11.63683300;2024-02-04T05:21:44;0.50;95.30
2767;DHT22;1391;46.74287300;11.63683300;2024-02-04T05:24:11;0.30;93.40
2767;DHT22;1391;46.74287300;11.63683300;2024-02-04T05:26:38;0.30;92.40
2767;DHT22;1391;46.74287300;11.63683300;2024-02-04T05:29:05;0.70;93.50
2767;DHT22;1391;46.74287300;11.63683300;2024-02-04T05:31:32;0.40;94.50
2767;DHT22;1391;46.74287300;11.63683300;2024-02-04T05:34:05;-0.20;91.20
2767;DHT22;1391;46.74287300;11.63683300;2024-02-04T05:36:33;0.60;98.20
2767;DHT22;1391;46.74287300;11.63683300;2024-02-04T05:39:09;1.00;96.50
2767;DHT22;1391;46.74287300;11.63683300;2024-02-04T05:41:37;0.80;94.80
2767;DHT22;1391;46.74287300;11.63683300;2024-02-04T05:44:04;0.40;84.70
2767;DHT22;1391;46.74287300;11.63683300;2024-02-04T05:46:32;0.00;92.20
2767;DHT22;1391;46.74287300;11.63683300;2024-02-04T05:49:00;0.30;95.00
2767;DHT22;1391;46.74287300;11.63683300;2024-02-04T05:51:28;0.60;94.70
2767;DHT22;1391;46.74287300;11.63683300;2024-02-04T05:53:55;1.50;91.10
2767;DHT22;1391;46.74287300;11.63683300;2024-02-04T05:56:22;1.50;82.60
2767;DHT22;1391;46.74287300;11.63683300;2024-02-04T05:58:49;2.00;77.20
2767;DHT22;1391;46.74287300;11.63683300;2024-02-04T06:01:17;1.90;71.30
2767;DHT22;1391;46.74287300;11.63683300;2024-02-04T06:03:44;1.50;67.90
2767;DHT22;1391;46.74287300;11.63683300;2024-02-04T06:06:16;1.50;68.30
2767;DHT22;1391;46.74287300;11.63683300;2024-02-04T06:08:45;2.00;65.90
2767;DHT22;1391;46.74287300;11.63683300;2024-02-04T06:11:13;1.80;62.80
2767;DHT22;1391;46.74287300;11.63683300;2024-02-04T06:13:42;1.50;62.20
2767;DHT22;1391;46.74287300;11.63683300;2024-02-04T06:16:10;1.00;72.90
2767;DHT22;1391;46.74287300;11.63683300;2024-02-04T06:18:38;1.10;75.20
2767;DHT22;1391;46.74287300;11.63683300;2024-02-04T06:21:06;1.10;75.70
2767;DHT22;1391;46.74287300;11.63683300;2024-02-04T06:23:35;1.30;77.40
2767;DHT22;1391;46.74287300;11.63683300;2024-02-04T06:26:05;0.90;78.30
2767;DHT22;1391;46.74287300;11.63683300;2024-02-04T06:28:32;0.80;80.50
2767;DHT22;1391;46.74287300;11.63683300;2024-02-04T06:30:59;1.30;85.20
2767;DHT22;1391;46.74287300;11.63683300;2024-02-04T06:33:26;0.30;76.70
2767;DHT22;1391;46.74287300;11.63683300;2024-02-04T06:35:54;0.70;85.40
2767;DHT22;1391;46.74287300;11.63683300;2024-02-04T06:38:21;1.00;84.70
2767;DHT22;1391;46.74287300;11.63683300;2024-02-04T06:40:50;0.50;82.30
2767;DHT22;1391;46.74287300;11.63683300;2024-02-04T06:43:17;0.20;83.50
2767;DHT22;1391;46.74287300;11.63683300;2024-02-04T06:45:44;0.50;92.10
2767;DHT22;1391;46.74287300;11.63683300;2024-02-04T06:48:12;0.60;91.50
2767;DHT22;1391;46.74287300;11.63683300;2024-02-04T06:50:40;1.60;90.60
2767;DHT22;1391;46.74287300;11.63683300;2024-02-04T06:53:12;1.10;73.90
2767;DHT22;1391;46.74287300;11.63683300;2024-02-04T06:55:45;1.20;84.80
2767;DHT22;1391;46.74287300;11.63683300;2024-02-04T06:58:13;1.80;76.50
2767;DHT22;1391;46.74287300;11.63683300;2024-02-04T07:00:41;1.60;66.80
2767;DHT22;1391;46.74287300;11.63683300;2024-02-04T07:03:08;0.90;69.70
2767;DHT22;1391;46.74287300;11.63683300;2024-02-04T07:05:35;0.90;78.10
2767;DHT22;1391;46.74287300;11.63683300;2024-02-04T07:08:03;1.00;81.20
2767;DHT22;1391;46.74287300;11.63683300;2024-02-04T07:10:30;0.90;80.90
2767;DHT22;1391;46.74287300;11.63683300;2024-02-04T07:12:58;0.90;82.20
2767;DHT22;1391;46.74287300;11.63683300;2024-02-04T07:15:26;1.00;84.20
2767;DHT22;1391;46.74287300;11.63683300;2024-02-04T07:17:53;0.70;83.70
2767;DHT22;1391;46.74287300;11.63683300;2024-02-04T07:20:20;1.10;82.90
2767;DHT22;1391;46.74287300;11.63683300;2024-02-04T07:22:48;0.60;79.50
2767;DHT22;1391;46.74287300;11.63683300;2024-02-04T07:25:15;0.10;82.30
2767;DHT22;1391;46.74287300;11.63683300;2024-02-04T07:27:42;0.50;85.80
2767;DHT22;1391;46.74287300;11.63683300;2024-02-04T07:30:09;0.60;88.00
2767;DHT22;1391;46.74287300;11.63683300;2024-02-04T07:32:38;0.50;89.60
2767;DHT22;1391;46.74287300;11.63683300;2024-02-04T07:35:06;0.40;89.20
2767;DHT22;1391;46.74287300;11.63683300;2024-02-04T07:37:34;0.60;87.50
2767;DHT22;1391;46.74287300;11.63683300;2024-02-04T07:40:02;0.40;90.80
2767;DHT22;1391;46.74287300;11.63683300;2024-02-04T07:42:31;0.60;90.90
2767;DHT22;1391;46.74287300;11.63683300;2024-02-04T07:44:58;0.50;90.50
2767;DHT22;1391;46.74287300;11.63683300;2024-02-04T07:47:25;0.90;91.00
2767;DHT22;1391;46.74287300;11.63683300;2024-02-04T07:49:54;0.70;90.80
2767;DHT22;1391;46.74287300;11.63683300;2024-02-04T07:52:21;1.10;91.10
2767;DHT22;1391;46.74287300;11.63683300;2024-02-04T07:54:48;1.10;90.10
2767;DHT22;1391;46.74287300;11.63683300;2024-02-04T07:57:16;1.30;86.40
2767;DHT22;1391;46.74287300;11.63683300;2024-02-04T07:59:43;1.40;86.30
2767;DHT22;1391;46.74287300;11.63683300;2024-02-04T08:02:10;1.70;89.30
2767;DHT22;1391;46.74287300;11.63683300;2024-02-04T08:04:40;2.30;85.70
2767;DHT22;1391;46.74287300;11.63683300;2024-02-04T08:07:08;2.50;78.30
2767;DHT22;1391;46.74287300;11.63683300;2024-02-04T08:09:35;3.20;77.20
2767;DHT22;1391;46.74287300;11.63683300;2024-02-04T08:12:03;3.80;71.80
2767;DHT22;1391;46.74287300;11.63683300;2024-02-04T08:14:30;4.00;59.30
2767;DHT22;1391;46.74287300;11.63683300;2024-02-04T08:16:58;3.90;59.40
2767;DHT22;1391;46.74287300;11.63683300;2024-02-04T08:19:25;4.30;53.40
2767;DHT22;1391;46.74287300;11.63683300;2024-02-04T08:21:52;5.10;45.80
2767;DHT22;1391;46.74287300;11.63683300;2024-02-04T08:24:21;5.20;35.20
2767;DHT22;1391;46.74287300;11.63683300;2024-02-04T08:26:48;5.20;30.90
2767;DHT22;1391;46.74287300;11.63683300;2024-02-04T08:29:15;5.50;30.30
2767;DHT22;1391;46.74287300;11.63683300;2024-02-04T08:31:42;6.00;29.00
2767;DHT22;1391;46.74287300;11.63683300;2024-02-04T08:34:09;6.30;29.40
2767;DHT22;1391;46.74287300;11.63683300;2024-02-04T08:36:37;6.70;25.20
2767;DHT22;1391;46.74287300;11.63683300;2024-02-04T08:39:04;6.70;20.90
2767;DHT22;1391;46.74287300;11.63683300;2024-02-04T08:41:32;7.00;21.70
2767;DHT22;1391;46.74287300;11.63683300;2024-02-04T08:43:59;6.50;20.00
2767;DHT22;1391;46.74287300;11.63683300;2024-02-04T08:46:27;6.60;21.30
2767;DHT22;1391;46.74287300;11.63683300;2024-02-04T08:48:54;6.60;21.30
2767;DHT22;1391;46.74287300;11.63683300;2024-02-04T08:51:21;6.70;21.30
2767;DHT22;1391;46.74287300;11.63683300;2024-02-04T08:53:48;6.30;21.90
2767;DHT22;1391;46.74287300;11.63683300;2024-02-04T08:56:16;7.00;20.80
2767;DHT22;1391;46.74287300;11.63683300;2024-02-04T08:58:45;7.70;18.00
2767;DHT22;1391;46.74287300;11.63683300;2024-02-04T09:01:12;6.90;15.60
2767;DHT22;1391;46.74287300;11.63683300;2024-02-04T09:03:39;7.10;17.40
2767;DHT22;1391;46.74287300;11.63683300;2024-02-04T09:06:06;7.70;15.60
2767;DHT22;1391;46.74287300;11.63683300;2024-02-04T09:08:35;8.10;14.00
2767;DHT22;1391;46.74287300;11.63683300;2024-02-04T09:11:02;8.40;13.20
2767;DHT22;1391;46.74287300;11.63683300;2024-02-04T09:13:29;8.80;9.60
2767;DHT22;1391;46.74287300;11.63683300;2024-02-04T09:15:58;8.70;10.30
2767;DHT22;1391;46.74287300;11.63683300;2024-02-04T09:18:25;8.90;8.60
2767;DHT22;1391;46.74287300;11.63683300;2024-02-04T09:20:52;9.30;8.30
2767;DHT22;1391;46.74287300;11.63683300;2024-02-04T09:23:19;9.70;4.30
2767;DHT22;1391;46.74287300;11.63683300;2024-02-04T09:25:46;10.30;4.00
2767;DHT22;1391;46.74287300;11.63683300;2024-02-04T09:28:14;9.60;2.80
2767;DHT22;1391;46.74287300;11.63683300;2024-02-04T09:30:41;9.30;3.60
2767;DHT22;1391;46.74287300;11.63683300;2024-02-04T09:33:10;9.20;3.50
2767;DHT22;1391;46.74287300;11.63683300;2024-02-04T09:35:37;9.30;3.70
2767;DHT22;1391;46.74287300;11.63683300;2024-02-04T09:38:04;9.00;4.50
2767;DHT22;1391;46.74287300;11.63683300;2024-02-04T09:40:32;9.10;3.50
2767;DHT22;1391;46.74287300;11.63683300;2024-02-04T09:43:00;9.80;5.60
2767;DHT22;1391;46.74287300;11.63683300;2024-02-04T09:45:28;9.50;3.00
2767;DHT22;1391;46.74287300;11.63683300;2024-02-04T09:47:57;9.30;2.40
2767;DHT22;1391;46.74287300;11.63683300;2024-02-04T09:50:26;9.20;2.60
2767;DHT22;1391;46.74287300;11.63683300;2024-02-04T09:52:58;9.60;2.90
2767;DHT22;1391;46.74287300;11.63683300;2024-02-04T09:55:27;9.90;1.60
2767;DHT22;1391;46.74287300;11.63683300;2024-02-04T09:57:56;10.00;1.00
2767;DHT22;1391;46.74287300;11.63683300;2024-02-04T10:00:23;9.90;1.40
2767;DHT22;1391;46.74287300;11.63683300;2024-02-04T10:02:55;10.90;1.00
2767;DHT22;1391;46.74287300;11.63683300;2024-02-04T10:05:23;10.40;1.00
2767;DHT22;1391;46.74287300;11.63683300;2024-02-04T10:07:52;10.90;1.00
2767;DHT22;1391;46.74287300;11.63683300;2024-02-04T10:10:20;11.60;1.00
2767;DHT22;1391;46.74287300;11.63683300;2024-02-04T10:12:47;10.80;1.00
2767;DHT22;1391;46.74287300;11.63683300;2024-02-04T10:15:15;10.90;1.00
2767;DHT22;1391;46.74287300;11.63683300;2024-02-04T10:17:42;11.70;1.00
2767;DHT22;1391;46.74287300;11.63683300;2024-02-04T10:20:12;11.90;1.00
2767;DHT22;1391;46.74287300;11.63683300;2024-02-04T10:22:40;10.90;1.00
2767;DHT22;1391;46.74287300;11.63683300;2024-02-04T10:25:09;11.50;1.00
2767;DHT22;1391;46.74287300;11.63683300;2024-02-04T10:27:41;11.30;1.00
2767;DHT22;1391;46.74287300;11.63683300;2024-02-04T10:30:10;11.50;1.00
2767;DHT22;1391;46.74287300;11.63683300;2024-02-04T10:32:38;11.80;1.00
2767;DHT22;1391;46.74287300;11.63683300;2024-02-04T10:35:05;11.90;1.00
2767;DHT22;1391;46.74287300;11.63683300;2024-02-04T10:37:38;12.80;1.00
2767;DHT22;1391;46.74287300;11.63683300;2024-02-04T10:40:06;11.90;1.00
2767;DHT22;1391;46.74287300;11.63683300;2024-02-04T10:42:36;12.00;1.00
2767;DHT22;1391;46.74287300;11.63683300;2024-02-04T10:45:08;12.20;1.00
2767;DHT22;1391;46.74287300;11.63683300;2024-02-04T10:47:38;12.40;1.00
2767;DHT22;1391;46.74287300;11.63683300;2024-02-04T10:50:06;12.30;1.00
2767;DHT22;1391;46.74287300;11.63683300;2024-02-04T10:52:36;12.30;1.00
2767;DHT22;1391;46.74287300;11.63683300;2024-02-04T10:55:09;12.30;1.00
2767;DHT22;1391;46.74287300;11.63683300;2024-02-04T10:57:38;12.60;1.00
2767;DHT22;1391;46.74287300;11.63683300;2024-02-04T11:00:07;12.30;1.00
2767;DHT22;1391;46.74287300;11.63683300;2024-02-04T11:02:38;12.50;1.00
2767;DHT22;1391;46.74287300;11.63683300;2024-02-04T11:05:07;12.40;1.00
2767;DHT22;1391;46.74287300;11.63683300;2024-02-04T11:07:35;12.70;1.00
2767;DHT22;1391;46.74287300;11.63683300;2024-02-04T11:10:03;12.80;1.00
2767;DHT22;1391;46.74287300;11.63683300;2024-02-04T11:12:33;12.90;1.00
2767;DHT22;1391;46.74287300;11.63683300;2024-02-04T11:15:05;13.20;1.00
2767;DHT22;1391;46.74287300;11.63683300;2024-02-04T11:17:48;13.20;1.00
2767;DHT22;1391;46.74287300;11.63683300;2024-02-04T11:20:57;12.40;1.00
2767;DHT22;1391;46.74287300;11.63683300;2024-02-04T11:23:51;12.80;1.00
2767;DHT22;1391;46.74287300;11.63683300;2024-02-04T11:26:26;13.30;1.00
2767;DHT22;1391;46.74287300;11.63683300;2024-02-04T11:28:56;13.60;1.00
2767;DHT22;1391;46.74287300;11.63683300;2024-02-04T11:31:23;13.60;1.00
2767;DHT22;1391;46.74287300;11.63683300;2024-02-04T11:33:51;13.50;1.00
2767;DHT22;1391;46.74287300;11.63683300;2024-02-04T11:36:18;14.50;1.00
2767;DHT22;1391;46.74287300;11.63683300;2024-02-04T11:38:48;14.60;1.00
2767;DHT22;1391;46.74287300;11.63683300;2024-02-04T11:41:22;14.20;1.00
2767;DHT22;1391;46.74287300;11.63683300;2024-02-04T11:43:52;14.10;1.00
2767;DHT22;1391;46.74287300;11.63683300;2024-02-04T11:46:22;14.80;1.00
2767;DHT22;1391;46.74287300;11.63683300;2024-02-04T11:48:52;14.90;1.00
2767;DHT22;1391;46.74287300;11.63683300;2024-02-04T11:51:22;14.60;1.00
2767;DHT22;1391;46.74287300;11.63683300;2024-02-04T11:53:50;14.50;1.00
2767;DHT22;1391;46.74287300;11.63683300;2024-02-04T11:56:18;14.90;1.00
2767;DHT22;1391;46.74287300;11.63683300;2024-02-04T11:58:46;14.60;1.00
2767;DHT22;1391;46.74287300;11.63683300;2024-02-04T12:01:13;14.90;1.00
2767;DHT22;1391;46.74287300;11.63683300;2024-02-04T12:03:42;15.00;1.00
2767;DHT22;1391;46.74287300;11.63683300;2024-02-04T12:06:10;14.60;1.00
2767;DHT22;1391;46.74287300;11.63683300;2024-02-04T12:08:42;15.20;1.00
2767;DHT22;1391;46.74287300;11.63683300;2024-02-04T12:11:09;15.30;1.00
2767;DHT22;1391;46.74287300;11.63683300;2024-02-04T12:13:37;15.60;1.00
2767;DHT22;1391;46.74287300;11.63683300;2024-02-04T12:16:05;15.60;1.00
2767;DHT22;1391;46.74287300;11.63683300;2024-02-04T12:18:35;15.10;1.00
2767;DHT22;1391;46.74287300;11.63683300;2024-02-04T12:21:03;15.50;1.00
2767;DHT22;1391;46.74287300;11.63683300;2024-02-04T12:23:31;15.60;1.00
2767;DHT22;1391;46.74287300;11.63683300;2024-02-04T12:25:58;15.90;1.00
2767;DHT22;1391;46.74287300;11.63683300;2024-02-04T12:28:25;15.50;1.00
2767;DHT22;1391;46.74287300;11.63683300;2024-02-04T12:30:53;15.60;1.00
2767;DHT22;1391;46.74287300;11.63683300;2024-02-04T12:33:21;15.20;1.00
2767;DHT22;1391;46.74287300;11.63683300;2024-02-04T12:35:52;15.40;1.00
2767;DHT22;1391;46.74287300;11.63683300;2024-02-04T12:38:23;15.20;1.00
2767;DHT22;1391;46.74287300;11.63683300;2024-02-04T12:40:50;15.30;1.00
2767;DHT22;1391;46.74287300;11.63683300;2024-02-04T12:43:17;15.10;1.00
2767;DHT22;1391;46.74287300;11.63683300;2024-02-04T12:45:45;15.50;1.00
2767;DHT22;1391;46.74287300;11.63683300;2024-02-04T12:48:15;14.60;1.00
2767;DHT22;1391;46.74287300;11.63683300;2024-02-04T12:50:44;14.60;1.00
2767;DHT22;1391;46.74287300;11.63683300;2024-02-04T12:53:11;14.50;1.00
2767;DHT22;1391;46.74287300;11.63683300;2024-02-04T12:55:40;14.90;1.00
2767;DHT22;1391;46.74287300;11.63683300;2024-02-04T12:58:09;14.70;1.00
2767;DHT22;1391;46.74287300;11.63683300;2024-02-04T13:00:40;14.60;1.00
2767;DHT22;1391;46.74287300;11.63683300;2024-02-04T13:03:08;14.50;1.00
2767;DHT22;1391;46.74287300;11.63683300;2024-02-04T13:05:36;14.90;1.00
2767;DHT22;1391;46.74287300;11.63683300;2024-02-04T13:08:04;14.60;1.00
2767;DHT22;1391;46.74287300;11.63683300;2024-02-04T13:10:33;14.10;1.00
2767;DHT22;1391;46.74287300;11.63683300;2024-02-04T13:13:03;14.10;1.00
2767;DHT22;1391;46.74287300;11.63683300;2024-02-04T13:15:33;14.10;1.00
2767;DHT22;1391;46.74287300;11.63683300;2024-02-04T13:18:06;14.00;1.00
2767;DHT22;1391;46.74287300;11.63683300;2024-02-04T13:20:36;14.50;1.00
2767;DHT22;1391;46.74287300;11.63683300;2024-02-04T13:23:04;14.10;1.00
2767;DHT22;1391;46.74287300;11.63683300;2024-02-04T13:25:31;14.10;1.00
2767;DHT22;1391;46.74287300;11.63683300;2024-02-04T13:27:58;14.00;1.00
2767;DHT22;1391;46.74287300;11.63683300;2024-02-04T13:30:28;13.40;1.00
2767;DHT22;1391;46.74287300;11.63683300;2024-02-04T13:32:56;13.50;1.00
2767;DHT22;1391;46.74287300;11.63683300;2024-02-04T13:35:23;13.10;1.00
2767;DHT22;1391;46.74287300;11.63683300;2024-02-04T13:37:51;12.80;1.00
2767;DHT22;1391;46.74287300;11.63683300;2024-02-04T13:40:20;12.60;1.00
2767;DHT22;1391;46.74287300;11.63683300;2024-02-04T13:42:49;12.10;1.00
2767;DHT22;1391;46.74287300;11.63683300;2024-02-04T13:45:16;12.10;1.00
2767;DHT22;1391;46.74287300;11.63683300;2024-02-04T13:47:44;12.10;1.00
2767;DHT22;1391;46.74287300;11.63683300;2024-02-04T13:50:12;12.00;1.00
2767;DHT22;1391;46.74287300;11.63683300;2024-02-04T13:52:39;12.20;1.00